sensor_id;sensor_type;location;lat;lon;timestamp;pressure;altitude;pressure_sealevel;temperature;humidity
39105;BME280;46464;51.154;13.812;2023-03-13T00:00:21;52493.03;;;-146.96;75.31
39105;BME280;46464;51.154;13.812;2023-03-13T00:02:47;52474.72;;;-146.96;75.16
39105;BME280;46464;51.154;13.812;2023-03-13T00:05:15;52474.72;;;-146.96;75.23
39105;BME280;46464;51.154;13.812;2023-03-13T00:07:42;52482.88;;;-146.96;75.58
39105;BME280;46464;51.154;13.812;2023-03-13T00:10:08;52484.91;;;-146.96;75.34
39105;BME280;46464;51.154;13.812;2023-03-13T00:12:34;52470.66;;;-146.96;75.46
39105;BME280;46464;51.154;13.812;2023-03-13T00:15:01;52466.59;;;-146.96;75.58
39105;BME280;46464;51.154;13.812;2023-03-13T00:17:27;52511.34;;;-146.96;75.39
39105;BME280;46464;51.154;13.812;2023-03-13T00:19:54;52488.97;;;-146.96;75.12
39105;BME280;46464;51.154;13.812;2023-03-13T00:22:21;52507.28;;;-146.96;75.25
39105;BME280;46464;51.154;13.812;2023-03-13T00:24:47;52460.50;;;-146.96;75.11
39105;BME280;46464;51.154;13.812;2023-03-13T00:27:14;52456.41;;;-146.96;74.81
39105;BME280;46464;51.154;13.812;2023-03-13T00:29:40;52427.94;;;-146.96;74.75
39105;BME280;46464;51.154;13.812;2023-03-13T00:32:06;52474.72;;;-146.96;74.87
39105;BME280;46464;51.154;13.812;2023-03-13T00:34:33;52486.94;;;-146.96;74.58
39105;BME280;46464;51.154;13.812;2023-03-13T00:36:59;52462.53;;;-146.96;74.38
39105;BME280;46464;51.154;13.812;2023-03-13T00:39:25;52482.88;;;-146.96;74.20
39105;BME280;46464;51.154;13.812;2023-03-13T00:41:52;52472.69;;;-146.96;74.39
39105;BME280;46464;51.154;13.812;2023-03-13T00:44:18;52482.88;;;-146.96;74.08
39105;BME280;46464;51.154;13.812;2023-03-13T00:46:44;52480.84;;;-146.96;73.98
39105;BME280;46464;51.154;13.812;2023-03-13T00:49:11;52476.75;;;-146.96;73.66
39105;BME280;46464;51.154;13.812;2023-03-13T00:51:37;52507.28;;;-146.96;73.86
39105;BME280;46464;51.154;13.812;2023-03-13T00:54:03;52456.41;;;-146.96;73.81
39105;BME280;46464;51.154;13.812;2023-03-13T00:56:30;52480.84;;;-146.96;73.67
39105;BME280;46464;51.154;13.812;2023-03-13T00:58:58;52429.97;;;-146.96;73.45
39105;BME280;46464;51.154;13.812;2023-03-13T01:01:26;52454.38;;;-146.96;72.76
39105;BME280;46464;51.154;13.812;2023-03-13T01:03:57;52478.81;;;-146.96;72.91
39105;BME280;46464;51.154;13.812;2023-03-13T01:06:25;52444.22;;;-146.96;72.80
39105;BME280;46464;51.154;13.812;2023-03-13T01:08:52;52472.69;;;-146.96;72.50
39105;BME280;46464;51.154;13.812;2023-03-13T01:11:20;52452.34;;;-146.96;72.15
39105;BME280;46464;51.154;13.812;2023-03-13T01:13:46;52464.56;;;-146.96;72.02
39105;BME280;46464;51.154;13.812;2023-03-13T01:16:14;52468.63;;;-146.96;72.00
39105;BME280;46464;51.154;13.812;2023-03-13T01:18:42;52472.69;;;-146.96;71.87
39105;BME280;46464;51.154;13.812;2023-03-13T01:21:08;52476.75;;;-146.96;72.09
39105;BME280;46464;51.154;13.812;2023-03-13T01:23:34;52444.22;;;-146.96;71.76
39105;BME280;46464;51.154;13.812;2023-03-13T01:26:02;52458.44;;;-146.96;71.55
39105;BME280;46464;51.154;13.812;2023-03-13T01:28:29;52460.50;;;-146.96;71.16
39105;BME280;46464;51.154;13.812;2023-03-13T01:30:55;52440.13;;;-146.96;70.97
39105;BME280;46464;51.154;13.812;2023-03-13T01:33:22;52486.94;;;-146.96;71.08
39105;BME280;46464;51.154;13.812;2023-03-13T01:35:48;52442.19;;;-146.96;71.22
39105;BME280;46464;51.154;13.812;2023-03-13T01:38:15;52470.66;;;-146.96;71.14
39105;BME280;46464;51.154;13.812;2023-03-13T01:40:42;52438.09;;;-146.96;71.00
39105;BME280;46464;51.154;13.812;2023-03-13T01:43:26;52434.03;;;-146.96;70.20
39105;BME280;46464;51.154;13.812;2023-03-13T01:46:12;52452.34;;;-146.96;70.20
39105;BME280;46464;51.154;13.812;2023-03-13T01:48:53;52444.22;;;-146.96;70.35
39105;BME280;46464;51.154;13.812;2023-03-13T01:51:23;52462.53;;;-146.96;70.25
39105;BME280;46464;51.154;13.812;2023-03-13T01:53:53;52444.22;;;-146.96;70.24
39105;BME280;46464;51.154;13.812;2023-03-13T01:56:28;52458.44;;;-146.96;70.11
39105;BME280;46464;51.154;13.812;2023-03-13T01:58:56;52454.38;;;-146.96;70.12
39105;BME280;46464;51.154;13.812;2023-03-13T02:01:24;52484.91;;;-146.96;70.12
39105;BME280;46464;51.154;13.812;2023-03-13T02:03:51;52474.72;;;-146.96;70.20
39105;BME280;46464;51.154;13.812;2023-03-13T02:06:20;52472.69;;;-146.96;70.01
39105;BME280;46464;51.154;13.812;2023-03-13T02:08:49;52476.75;;;-146.96;69.92
39105;BME280;46464;51.154;13.812;2023-03-13T02:11:20;52472.69;;;-146.96;69.83
39105;BME280;46464;51.154;13.812;2023-03-13T02:13:49;52499.16;;;-146.96;70.06
39105;BME280;46464;51.154;13.812;2023-03-13T02:16:17;52466.59;;;-146.96;70.12
39105;BME280;46464;51.154;13.812;2023-03-13T02:18:44;52505.25;;;-146.96;70.31
39105;BME280;46464;51.154;13.812;2023-03-13T02:21:13;52476.75;;;-146.96;70.27
39105;BME280;46464;51.154;13.812;2023-03-13T02:23:43;52488.97;;;-146.96;70.09
39105;BME280;46464;51.154;13.812;2023-03-13T02:26:16;52466.59;;;-146.96;70.09
39105;BME280;46464;51.154;13.812;2023-03-13T02:28:42;52442.19;;;-146.96;70.09
39105;BME280;46464;51.154;13.812;2023-03-13T02:31:09;52482.88;;;-146.96;69.58
39105;BME280;46464;51.154;13.812;2023-03-13T02:33:36;52466.59;;;-146.96;70.11
39105;BME280;46464;51.154;13.812;2023-03-13T02:36:04;52444.22;;;-146.96;70.24
39105;BME280;46464;51.154;13.812;2023-03-13T02:38:32;52486.94;;;-146.96;70.50
39105;BME280;46464;51.154;13.812;2023-03-13T02:41:00;52491.00;;;-146.96;70.28
39105;BME280;46464;51.154;13.812;2023-03-13T02:43:31;52474.72;;;-146.96;70.47
39105;BME280;46464;51.154;13.812;2023-03-13T02:46:35;52503.22;;;-146.96;70.78
39105;BME280;46464;51.154;13.812;2023-03-13T02:48:52;52440.13;;;-146.96;70.52
39105;BME280;46464;51.154;13.812;2023-03-13T02:53:49;52474.72;;;-146.96;70.35
39105;BME280;46464;51.154;13.812;2023-03-13T02:56:16;52442.19;;;-146.96;70.20
39105;BME280;46464;51.154;13.812;2023-03-13T02:58:45;52446.25;;;-146.96;70.10
39105;BME280;46464;51.154;13.812;2023-03-13T03:01:15;52466.59;;;-146.96;70.02
39105;BME280;46464;51.154;13.812;2023-03-13T03:03:42;52407.59;;;-146.96;70.19
39105;BME280;46464;51.154;13.812;2023-03-13T03:06:08;52472.69;;;-146.96;70.05
39105;BME280;46464;51.154;13.812;2023-03-13T03:08:35;52427.94;;;-146.96;69.91
39105;BME280;46464;51.154;13.812;2023-03-13T03:11:01;52452.34;;;-146.96;69.77
39105;BME280;46464;51.154;13.812;2023-03-13T03:13:30;52458.44;;;-146.96;69.53
39105;BME280;46464;51.154;13.812;2023-03-13T03:15:56;52450.31;;;-146.96;69.60
39105;BME280;46464;51.154;13.812;2023-03-13T03:18:23;52476.75;;;-146.96;69.89
39105;BME280;46464;51.154;13.812;2023-03-13T03:20:49;52448.28;;;-146.96;69.83
39105;BME280;46464;51.154;13.812;2023-03-13T03:23:15;52452.34;;;-146.96;69.60
39105;BME280;46464;51.154;13.812;2023-03-13T03:25:42;52448.28;;;-146.96;69.38
39105;BME280;46464;51.154;13.812;2023-03-13T03:28:09;52423.88;;;-146.96;69.70
39105;BME280;46464;51.154;13.812;2023-03-13T03:30:38;52427.94;;;-146.96;69.60
39105;BME280;46464;51.154;13.812;2023-03-13T03:33:04;52442.19;;;-146.96;69.75
39105;BME280;46464;51.154;13.812;2023-03-13T03:35:31;52432.00;;;-146.96;69.89
39105;BME280;46464;51.154;13.812;2023-03-13T03:37:59;52468.63;;;-146.96;70.03
39105;BME280;46464;51.154;13.812;2023-03-13T03:40:26;52488.97;;;-146.96;70.12
39105;BME280;46464;51.154;13.812;2023-03-13T03:42:53;52470.66;;;-146.96;69.75
39105;BME280;46464;51.154;13.812;2023-03-13T03:45:19;52468.63;;;-146.96;69.84
39105;BME280;46464;51.154;13.812;2023-03-13T03:47:46;52464.56;;;-146.96;69.93
39105;BME280;46464;51.154;13.812;2023-03-13T03:50:12;52462.53;;;-146.96;70.28
39105;BME280;46464;51.154;13.812;2023-03-13T03:52:38;52476.75;;;-146.96;70.22
39105;BME280;46464;51.154;13.812;2023-03-13T03:55:05;52474.72;;;-146.96;70.58
39105;BME280;46464;51.154;13.812;2023-03-13T03:57:31;52458.44;;;-146.96;71.03
39105;BME280;46464;51.154;13.812;2023-03-13T03:59:58;52462.53;;;-146.96;70.77
39105;BME280;46464;51.154;13.812;2023-03-13T04:02:24;52466.59;;;-146.96;71.13
39105;BME280;46464;51.154;13.812;2023-03-13T04:04:50;52478.81;;;-146.96;70.90
39105;BME280;46464;51.154;13.812;2023-03-13T04:07:17;52476.75;;;-146.96;71.37
39105;BME280;46464;51.154;13.812;2023-03-13T04:09:43;52454.38;;;-146.96;71.09
39105;BME280;46464;51.154;13.812;2023-03-13T04:12:09;52458.44;;;-146.96;71.18
39105;BME280;46464;51.154;13.812;2023-03-13T04:14:36;52466.59;;;-146.96;71.40
39105;BME280;46464;51.154;13.812;2023-03-13T04:17:02;52448.28;;;-146.96;71.61
39105;BME280;46464;51.154;13.812;2023-03-13T04:19:29;52486.94;;;-146.96;71.37
39105;BME280;46464;51.154;13.812;2023-03-13T04:21:55;52456.41;;;-146.96;71.53
39105;BME280;46464;51.154;13.812;2023-03-13T04:24:21;52501.19;;;-146.96;71.75
39105;BME280;46464;51.154;13.812;2023-03-13T04:26:48;52493.03;;;-146.96;71.64
39105;BME280;46464;51.154;13.812;2023-03-13T04:29:14;52466.59;;;-146.96;71.70
39105;BME280;46464;51.154;13.812;2023-03-13T04:31:40;52513.41;;;-146.96;72.05
39105;BME280;46464;51.154;13.812;2023-03-13T04:34:07;52484.91;;;-146.96;71.95
39105;BME280;46464;51.154;13.812;2023-03-13T04:36:33;52493.03;;;-146.96;72.19
39105;BME280;46464;51.154;13.812;2023-03-13T04:38:59;52519.50;;;-146.96;73.00
39105;BME280;46464;51.154;13.812;2023-03-13T04:41:26;52468.63;;;-146.96;73.22
39105;BME280;46464;51.154;13.812;2023-03-13T04:43:52;52480.84;;;-146.96;72.95
39105;BME280;46464;51.154;13.812;2023-03-13T04:46:18;52503.22;;;-146.96;72.78
39105;BME280;46464;51.154;13.812;2023-03-13T04:48:45;52499.16;;;-146.96;73.10
39105;BME280;46464;51.154;13.812;2023-03-13T04:51:12;52458.44;;;-146.96;73.20
39105;BME280;46464;51.154;13.812;2023-03-13T04:53:38;52460.50;;;-146.96;73.32
39105;BME280;46464;51.154;13.812;2023-03-13T04:56:04;52495.06;;;-146.96;73.11
39105;BME280;46464;51.154;13.812;2023-03-13T04:58:31;52480.84;;;-146.96;73.16
39105;BME280;46464;51.154;13.812;2023-03-13T05:00:57;52525.59;;;-146.96;72.67
39105;BME280;46464;51.154;13.812;2023-03-13T05:03:24;52452.34;;;-146.96;72.94
39105;BME280;46464;51.154;13.812;2023-03-13T05:05:50;52472.69;;;-146.96;72.33
39105;BME280;46464;51.154;13.812;2023-03-13T05:08:17;52468.63;;;-146.96;72.16
39105;BME280;46464;51.154;13.812;2023-03-13T05:10:44;52470.66;;;-146.96;72.25
39105;BME280;46464;51.154;13.812;2023-03-13T05:13:10;52478.81;;;-146.96;72.21
39105;BME280;46464;51.154;13.812;2023-03-13T05:15:36;52486.94;;;-146.96;72.66
39105;BME280;46464;51.154;13.812;2023-03-13T05:18:03;52446.25;;;-146.96;72.84
39105;BME280;46464;51.154;13.812;2023-03-13T05:20:29;52468.63;;;-146.96;73.04
39105;BME280;46464;51.154;13.812;2023-03-13T05:22:56;52484.91;;;-146.96;72.47
39105;BME280;46464;51.154;13.812;2023-03-13T05:25:22;52486.94;;;-146.96;72.18
39105;BME280;46464;51.154;13.812;2023-03-13T05:27:48;52484.91;;;-146.96;72.01
39105;BME280;46464;51.154;13.812;2023-03-13T05:30:15;52448.28;;;-146.96;72.14
39105;BME280;46464;51.154;13.812;2023-03-13T05:32:41;52466.59;;;-146.96;72.50
39105;BME280;46464;51.154;13.812;2023-03-13T05:35:08;52495.06;;;-146.96;72.47
39105;BME280;46464;51.154;13.812;2023-03-13T05:37:34;52458.44;;;-146.96;72.47
39105;BME280;46464;51.154;13.812;2023-03-13T05:40:00;52460.50;;;-146.96;72.28
39105;BME280;46464;51.154;13.812;2023-03-13T05:42:27;52484.91;;;-146.96;72.15
39105;BME280;46464;51.154;13.812;2023-03-13T05:44:53;52454.38;;;-146.96;72.16
39105;BME280;46464;51.154;13.812;2023-03-13T05:47:19;52458.44;;;-146.96;72.13
39105;BME280;46464;51.154;13.812;2023-03-13T05:49:46;52478.81;;;-146.96;72.28
39105;BME280;46464;51.154;13.812;2023-03-13T05:52:12;52462.53;;;-146.96;72.20
39105;BME280;46464;51.154;13.812;2023-03-13T05:54:38;52464.56;;;-146.96;71.94
39105;BME280;46464;51.154;13.812;2023-03-13T05:57:05;52448.28;;;-146.96;71.80
39105;BME280;46464;51.154;13.812;2023-03-13T05:59:31;52476.75;;;-146.96;72.34
39105;BME280;46464;51.154;13.812;2023-03-13T06:01:57;52470.66;;;-146.96;72.49
39105;BME280;46464;51.154;13.812;2023-03-13T06:04:24;52484.91;;;-146.96;72.56
39105;BME280;46464;51.154;13.812;2023-03-13T06:06:50;52462.53;;;-146.96;72.74
39105;BME280;46464;51.154;13.812;2023-03-13T06:09:17;52497.13;;;-146.96;72.12
39105;BME280;46464;51.154;13.812;2023-03-13T06:11:43;52480.84;;;-146.96;72.50
39105;BME280;46464;51.154;13.812;2023-03-13T06:14:10;52411.66;;;-146.96;72.52
39105;BME280;46464;51.154;13.812;2023-03-13T06:16:36;52446.25;;;-146.96;72.28
39105;BME280;46464;51.154;13.812;2023-03-13T06:19:02;52468.63;;;-146.96;71.80
39105;BME280;46464;51.154;13.812;2023-03-13T06:21:29;52446.25;;;-146.96;72.05
39105;BME280;46464;51.154;13.812;2023-03-13T06:23:55;52450.31;;;-146.96;72.21
39105;BME280;46464;51.154;13.812;2023-03-13T06:26:22;52462.53;;;-146.96;72.00
39105;BME280;46464;51.154;13.812;2023-03-13T06:28:50;52472.69;;;-146.96;71.60
39105;BME280;46464;51.154;13.812;2023-03-13T06:31:16;52444.22;;;-146.96;71.67
39105;BME280;46464;51.154;13.812;2023-03-13T06:33:45;52442.19;;;-146.96;71.88
39105;BME280;46464;51.154;13.812;2023-03-13T06:36:14;52460.50;;;-146.96;72.06
39105;BME280;46464;51.154;13.812;2023-03-13T06:38:41;52407.59;;;-146.96;72.08
39105;BME280;46464;51.154;13.812;2023-03-13T06:41:09;52444.22;;;-146.96;72.06
39105;BME280;46464;51.154;13.812;2023-03-13T06:43:35;52436.06;;;-146.96;72.06
39105;BME280;46464;51.154;13.812;2023-03-13T06:46:06;52454.38;;;-146.96;71.81
39105;BME280;46464;51.154;13.812;2023-03-13T06:48:33;52425.91;;;-146.96;71.83
39105;BME280;46464;51.154;13.812;2023-03-13T06:50:59;52452.34;;;-146.96;71.70
39105;BME280;46464;51.154;13.812;2023-03-13T06:53:26;52442.19;;;-146.96;71.62
39105;BME280;46464;51.154;13.812;2023-03-13T06:55:52;52438.09;;;-146.96;71.69
39105;BME280;46464;51.154;13.812;2023-03-13T06:58:18;52419.78;;;-146.96;71.91
39105;BME280;46464;51.154;13.812;2023-03-13T07:00:58;52446.25;;;-146.96;71.89
39105;BME280;46464;51.154;13.812;2023-03-13T07:03:25;52436.06;;;-146.96;71.69
39105;BME280;46464;51.154;13.812;2023-03-13T07:05:55;52427.94;;;-146.96;72.28
39105;BME280;46464;51.154;13.812;2023-03-13T07:08:22;52434.03;;;-146.96;72.30
39105;BME280;46464;51.154;13.812;2023-03-13T07:10:50;52419.78;;;-146.96;72.33
39105;BME280;46464;51.154;13.812;2023-03-13T07:13:18;52429.97;;;-146.96;72.09
39105;BME280;46464;51.154;13.812;2023-03-13T07:15:47;52450.31;;;-146.96;72.44
39105;BME280;46464;51.154;13.812;2023-03-13T07:18:14;52436.06;;;-146.96;72.64
39105;BME280;46464;51.154;13.812;2023-03-13T07:20:40;52427.94;;;-146.96;72.36
39105;BME280;46464;51.154;13.812;2023-03-13T07:23:07;52399.44;;;-146.96;71.39
39105;BME280;46464;51.154;13.812;2023-03-13T07:25:33;52421.81;;;-146.96;70.86
39105;BME280;46464;51.154;13.812;2023-03-13T07:28:00;52429.97;;;-146.96;70.94
39105;BME280;46464;51.154;13.812;2023-03-13T07:30:26;52427.94;;;-146.96;70.95
39105;BME280;46464;51.154;13.812;2023-03-13T07:32:53;52395.38;;;-146.96;71.40
39105;BME280;46464;51.154;13.812;2023-03-13T07:35:20;52429.97;;;-146.96;71.84
39105;BME280;46464;51.154;13.812;2023-03-13T07:37:46;52387.22;;;-146.96;73.16
39105;BME280;46464;51.154;13.812;2023-03-13T07:40:12;52421.81;;;-146.96;74.02
39105;BME280;46464;51.154;13.812;2023-03-13T07:42:39;52397.41;;;-146.96;74.77
39105;BME280;46464;51.154;13.812;2023-03-13T07:45:07;52423.88;;;-146.96;75.83
39105;BME280;46464;51.154;13.812;2023-03-13T07:47:34;52419.78;;;-146.96;77.07
39105;BME280;46464;51.154;13.812;2023-03-13T07:50:00;52389.28;;;-146.96;78.64
39105;BME280;46464;51.154;13.812;2023-03-13T07:52:27;52423.88;;;-146.96;79.38
39105;BME280;46464;51.154;13.812;2023-03-13T07:54:53;52452.34;;;-146.96;80.29
39105;BME280;46464;51.154;13.812;2023-03-13T07:57:19;52427.94;;;-146.96;81.27
39105;BME280;46464;51.154;13.812;2023-03-13T07:59:46;52417.75;;;-146.96;81.44
39105;BME280;46464;51.154;13.812;2023-03-13T08:02:12;52456.41;;;-146.96;82.33
39105;BME280;46464;51.154;13.812;2023-03-13T08:04:39;52436.06;;;-146.96;83.91
39105;BME280;46464;51.154;13.812;2023-03-13T08:07:09;52419.78;;;-146.96;84.81
39105;BME280;46464;51.154;13.812;2023-03-13T08:09:35;52427.94;;;-146.96;85.07
39105;BME280;46464;51.154;13.812;2023-03-13T08:12:02;52415.72;;;-146.96;85.64
39105;BME280;46464;51.154;13.812;2023-03-13T08:14:28;52444.22;;;-146.96;85.81
39105;BME280;46464;51.154;13.812;2023-03-13T08:16:55;52434.03;;;-146.96;86.60
39105;BME280;46464;51.154;13.812;2023-03-13T08:19:21;52423.88;;;-146.96;88.04
39105;BME280;46464;51.154;13.812;2023-03-13T08:21:54;52448.28;;;-146.96;89.28
39105;BME280;46464;51.154;13.812;2023-03-13T08:24:35;52436.06;;;-146.96;89.58
39105;BME280;46464;51.154;13.812;2023-03-13T08:27:01;52456.41;;;-146.96;90.49
39105;BME280;46464;51.154;13.812;2023-03-13T08:29:27;52425.91;;;-146.96;92.78
39105;BME280;46464;51.154;13.812;2023-03-13T08:31:54;52452.34;;;-146.96;94.15
39105;BME280;46464;51.154;13.812;2023-03-13T08:34:20;52427.94;;;-146.96;95.20
39105;BME280;46464;51.154;13.812;2023-03-13T08:36:47;52454.38;;;-146.96;95.36
39105;BME280;46464;51.154;13.812;2023-03-13T08:39:14;52482.88;;;-146.96;95.89
39105;BME280;46464;51.154;13.812;2023-03-13T08:41:41;52444.22;;;-146.96;96.46
39105;BME280;46464;51.154;13.812;2023-03-13T08:44:15;52444.22;;;-146.96;96.56
39105;BME280;46464;51.154;13.812;2023-03-13T08:46:42;52450.31;;;-146.96;95.17
39105;BME280;46464;51.154;13.812;2023-03-13T08:49:09;52454.38;;;-146.96;95.63
39105;BME280;46464;51.154;13.812;2023-03-13T08:51:36;52440.13;;;-146.96;96.61
39105;BME280;46464;51.154;13.812;2023-03-13T08:54:03;52450.31;;;-146.96;96.95
39105;BME280;46464;51.154;13.812;2023-03-13T08:56:29;52440.13;;;-146.96;97.69
39105;BME280;46464;51.154;13.812;2023-03-13T08:58:57;52417.75;;;-146.96;98.81
39105;BME280;46464;51.154;13.812;2023-03-13T09:01:25;52468.63;;;-146.96;98.50
39105;BME280;46464;51.154;13.812;2023-03-13T09:03:52;52464.56;;;-146.96;96.03
39105;BME280;46464;51.154;13.812;2023-03-13T09:06:19;52462.53;;;-146.96;95.86
39105;BME280;46464;51.154;13.812;2023-03-13T09:08:45;52438.09;;;-146.96;96.34
39105;BME280;46464;51.154;13.812;2023-03-13T09:11:12;52427.94;;;-146.96;95.65
39105;BME280;46464;51.154;13.812;2023-03-13T09:13:41;52456.41;;;-146.96;94.74
39105;BME280;46464;51.154;13.812;2023-03-13T09:16:09;52444.22;;;-146.96;94.14
39105;BME280;46464;51.154;13.812;2023-03-13T09:18:36;52429.97;;;-146.96;94.02
39105;BME280;46464;51.154;13.812;2023-03-13T09:21:04;52440.13;;;-146.96;92.92
39105;BME280;46464;51.154;13.812;2023-03-13T09:23:31;52421.81;;;-146.96;93.03
39105;BME280;46464;51.154;13.812;2023-03-13T09:25:57;52448.28;;;-146.96;93.43
39105;BME280;46464;51.154;13.812;2023-03-13T09:28:24;52450.31;;;-146.96;94.28
39105;BME280;46464;51.154;13.812;2023-03-13T09:30:53;52452.34;;;-146.96;95.44
39105;BME280;46464;51.154;13.812;2023-03-13T09:33:20;52460.50;;;-146.96;94.73
39105;BME280;46464;51.154;13.812;2023-03-13T09:35:49;52421.81;;;-146.96;95.23
39105;BME280;46464;51.154;13.812;2023-03-13T09:38:16;52440.13;;;-146.96;95.57
39105;BME280;46464;51.154;13.812;2023-03-13T09:40:44;52468.63;;;-146.96;95.35
39105;BME280;46464;51.154;13.812;2023-03-13T09:43:36;52432.00;;;-146.96;96.38
39105;BME280;46464;51.154;13.812;2023-03-13T09:46:07;52468.63;;;-146.96;98.69
39105;BME280;46464;51.154;13.812;2023-03-13T09:48:37;52413.69;;;-146.96;99.99
39105;BME280;46464;51.154;13.812;2023-03-13T09:51:10;52415.72;;;-146.96;100.00
39105;BME280;46464;51.154;13.812;2023-03-13T09:53:46;52456.41;;;-146.96;100.00
39105;BME280;46464;51.154;13.812;2023-03-13T09:56:18;52425.91;;;-146.96;100.00
39105;BME280;46464;51.154;13.812;2023-03-13T09:58:50;52417.75;;;-146.96;100.00
39105;BME280;46464;51.154;13.812;2023-03-13T10:01:19;52429.97;;;-146.96;100.00
39105;BME280;46464;51.154;13.812;2023-03-13T10:06:46;52411.66;;;-146.96;100.00
39105;BME280;46464;51.154;13.812;2023-03-13T10:09:17;52452.34;;;-146.96;100.00
39105;BME280;46464;51.154;13.812;2023-03-13T10:12:03;52434.03;;;-146.96;100.00
39105;BME280;46464;51.154;13.812;2023-03-13T10:19:55;52401.47;;;-146.96;100.00
39105;BME280;46464;51.154;13.812;2023-03-13T10:22:25;52421.81;;;-146.96;100.00
39105;BME280;46464;51.154;13.812;2023-03-13T10:27:25;52375.03;;;-146.96;100.00
39105;BME280;46464;51.154;13.812;2023-03-13T10:29:51;52358.75;;;-146.96;100.00
39105;BME280;46464;51.154;13.812;2023-03-13T10:32:18;52387.22;;;-146.96;100.00
39105;BME280;46464;51.154;13.812;2023-03-13T10:34:49;52370.97;;;-146.96;100.00
39105;BME280;46464;51.154;13.812;2023-03-13T10:38:00;52387.22;;;-146.96;100.00
39105;BME280;46464;51.154;13.812;2023-03-13T10:40:18;52391.31;;;-146.96;100.00
39105;BME280;46464;51.154;13.812;2023-03-13T10:42:45;52395.38;;;-146.96;100.00
39105;BME280;46464;51.154;13.812;2023-03-13T10:45:15;52352.66;;;-146.96;100.00
39105;BME280;46464;51.154;13.812;2023-03-13T10:47:42;52383.16;;;-146.96;100.00
39105;BME280;46464;51.154;13.812;2023-03-13T10:50:16;52346.53;;;-146.96;100.00
39105;BME280;46464;51.154;13.812;2023-03-13T10:52:46;52360.78;;;-146.96;100.00
39105;BME280;46464;51.154;13.812;2023-03-13T10:55:17;52350.59;;;-146.96;100.00
39105;BME280;46464;51.154;13.812;2023-03-13T10:57:57;52362.81;;;-146.96;100.00
39105;BME280;46464;51.154;13.812;2023-03-13T11:02:51;52415.72;;;-146.96;100.00
39105;BME280;46464;51.154;13.812;2023-03-13T11:07:51;52364.84;;;-146.96;100.00
39105;BME280;46464;51.154;13.812;2023-03-13T11:10:19;52338.41;;;-146.96;100.00
39105;BME280;46464;51.154;13.812;2023-03-13T11:12:50;52407.59;;;-146.96;97.34
39105;BME280;46464;51.154;13.812;2023-03-13T11:15:19;52375.03;;;-146.96;94.51
39105;BME280;46464;51.154;13.812;2023-03-13T11:17:49;52366.88;;;-146.96;93.97
39105;BME280;46464;51.154;13.812;2023-03-13T11:20:26;52352.66;;;-146.96;88.01
39105;BME280;46464;51.154;13.812;2023-03-13T11:32:54;52332.28;;;-146.96;82.28
39105;BME280;46464;51.154;13.812;2023-03-13T11:38:06;52338.41;;;-146.96;79.43
39105;BME280;46464;51.154;13.812;2023-03-13T11:41:38;52267.19;;;-146.96;79.21
39105;BME280;46464;51.154;13.812;2023-03-13T11:54:23;52275.31;;;-146.96;76.97
39105;BME280;46464;51.154;13.812;2023-03-13T11:56:56;52273.28;;;-146.96;77.13
39105;BME280;46464;51.154;13.812;2023-03-13T12:01:53;52287.53;;;-146.96;77.85
39105;BME280;46464;51.154;13.812;2023-03-13T12:04:22;52273.28;;;-146.96;76.16
39105;BME280;46464;51.154;13.812;2023-03-13T12:07:04;52279.41;;;-146.96;78.00
39105;BME280;46464;51.154;13.812;2023-03-13T12:14:44;52320.09;;;-146.96;76.63
39105;BME280;46464;51.154;13.812;2023-03-13T12:17:13;52309.91;;;-146.96;75.01
39105;BME280;46464;51.154;13.812;2023-03-13T12:19:45;52295.66;;;-146.96;74.50
39105;BME280;46464;51.154;13.812;2023-03-13T12:22:14;52244.81;;;-146.96;73.95
39105;BME280;46464;51.154;13.812;2023-03-13T12:24:48;52254.97;;;-146.96;74.58
39105;BME280;46464;51.154;13.812;2023-03-13T12:27:30;52269.22;;;-146.96;75.80
39105;BME280;46464;51.154;13.812;2023-03-13T12:30:05;52261.09;;;-146.96;77.68
39105;BME280;46464;51.154;13.812;2023-03-13T12:32:53;52244.81;;;-146.96;74.50
39105;BME280;46464;51.154;13.812;2023-03-13T12:35:26;52263.13;;;-146.96;74.36
39105;BME280;46464;51.154;13.812;2023-03-13T12:38:16;52252.94;;;-146.96;74.44
39105;BME280;46464;51.154;13.812;2023-03-13T12:43:31;52236.66;;;-146.96;74.03
39105;BME280;46464;51.154;13.812;2023-03-13T12:51:13;52218.34;;;-146.96;70.98
39105;BME280;46464;51.154;13.812;2023-03-13T12:58:43;52234.63;;;-146.96;69.79
39105;BME280;46464;51.154;13.812;2023-03-13T13:01:16;52224.47;;;-146.96;68.47
39105;BME280;46464;51.154;13.812;2023-03-13T13:03:49;52228.53;;;-146.96;67.84
39105;BME280;46464;51.154;13.812;2023-03-13T13:06:16;52185.81;;;-146.96;68.58
39105;BME280;46464;51.154;13.812;2023-03-13T13:08:46;52200.03;;;-146.96;68.29
39105;BME280;46464;51.154;13.812;2023-03-13T13:13:58;52206.16;;;-146.96;67.99
39105;BME280;46464;51.154;13.812;2023-03-13T13:16:25;52238.69;;;-146.96;67.27
39105;BME280;46464;51.154;13.812;2023-03-13T13:18:52;52222.41;;;-146.96;66.64
39105;BME280;46464;51.154;13.812;2023-03-13T13:21:22;52185.81;;;-146.96;66.68
39105;BME280;46464;51.154;13.812;2023-03-13T13:23:51;52195.97;;;-146.96;66.44
39105;BME280;46464;51.154;13.812;2023-03-13T13:31:44;52218.34;;;-146.96;66.15
39105;BME280;46464;51.154;13.812;2023-03-13T13:37:22;52155.28;;;-146.96;65.32
39105;BME280;46464;51.154;13.812;2023-03-13T13:39:52;52169.53;;;-146.96;66.43
39105;BME280;46464;51.154;13.812;2023-03-13T13:43:04;52183.75;;;-146.96;65.48
39105;BME280;46464;51.154;13.812;2023-03-13T13:47:52;52161.38;;;-146.96;63.91
39105;BME280;46464;51.154;13.812;2023-03-13T13:50:27;52161.38;;;-146.96;64.61
39105;BME280;46464;51.154;13.812;2023-03-13T13:55:53;52151.22;;;-146.96;64.37